Time;durP1;ratioP1;P1;durP2;ratioP2;P2;SDS_P1;SDS_P2;PMS_P1;PMS_P2;Temp;Humidity;BMP_temperature;BMP_pressure;BME280_temperature;BME280_humidity;BME280_pressure;Samples;Min_cycle;Max_cycle;Signal;HPM_P1;HPM_P2
2022/09/10 00:00:19;;;;;;;9.25;2.50;;;17.90;99.90;;;-147.18;100.00;67318.16;5031562;28;20059;-82
2022/09/10 00:03:47;;;;;;;9.60;2.83;;;17.90;99.90;;;-147.18;100.00;67318.16;5021855;28;20040;-82
2022/09/10 00:07:13;;;;;;;10.52;2.83;;;17.90;99.90;;;-147.18;100.00;67318.16;5022831;28;20053;-82
2022/09/10 00:10:39;;;;;;;9.25;2.40;;;17.90;99.90;;;-147.18;100.00;67318.16;5027134;28;20060;-82
2022/09/10 00:14:08;;;;;;;8.68;1.80;;;18.00;99.90;;;-147.18;100.00;67318.16;5026535;28;20050;-82
2022/09/10 00:17:35;;;;;;;9.02;2.30;;;18.00;99.90;;;-147.18;100.00;67318.16;5031123;28;20060;-82
2022/09/10 00:21:04;;;;;;;5.63;1.77;;;18.00;99.90;;;-147.18;100.00;67318.16;5030373;28;20072;-82
2022/09/10 00:24:32;;;;;;;5.43;1.60;;;18.00;99.90;;;-147.18;100.00;67318.16;5029376;28;20052;-82
2022/09/10 00:27:59;;;;;;;7.57;1.80;;;18.00;99.90;;;-147.18;100.00;67318.16;5026901;28;20524;-82
2022/09/10 00:31:27;;;;;;;6.65;1.75;;;18.00;99.90;;;-147.18;100.00;67318.16;5023895;28;20042;-82
2022/09/10 00:34:54;;;;;;;6.10;1.30;;;18.00;99.90;;;-147.18;100.00;67318.16;5012687;28;20080;-82
2022/09/10 00:38:20;;;;;;;4.97;1.58;;;18.00;99.90;;;-147.18;100.00;67318.16;5015398;28;20068;-82
2022/09/10 00:41:46;;;;;;;7.07;1.65;;;18.00;99.90;;;-147.18;100.00;67318.16;5024853;28;20049;-82
2022/09/10 00:45:52;;;;;;;6.90;1.60;;;18.10;99.90;;;-147.18;100.00;67318.16;5027838;28;20080;-82
2022/09/10 00:49:23;;;;;;;6.57;1.70;;;18.00;99.90;;;-147.18;100.00;67318.16;5013210;28;20045;-82
2022/09/10 00:52:52;;;;;;;7.10;1.50;;;18.20;99.90;;;-147.18;100.00;67318.16;5026074;28;20056;-82
2022/09/10 00:56:19;;;;;;;6.22;1.70;;;18.00;99.90;;;-147.18;100.00;67318.16;5001041;28;20053;-82
2022/09/10 00:59:48;;;;;;;12.20;1.88;;;18.10;99.90;;;-147.18;100.00;67318.16;5012632;28;20065;-82
2022/09/10 01:03:16;;;;;;;4.78;1.73;;;18.00;99.90;;;-147.18;100.00;67318.16;5027995;28;20435;-82
2022/09/10 01:06:45;;;;;;;5.85;1.95;;;18.10;99.90;;;-147.18;100.00;67318.16;5004190;28;20037;-82
2022/09/10 01:10:14;;;;;;;5.30;1.90;;;18.10;99.90;;;-147.18;100.00;67318.16;5011532;28;20401;-82
2022/09/10 01:14:25;;;;;;;6.47;1.58;;;18.00;99.90;;;-147.18;100.00;67318.16;5027158;28;20045;-82
2022/09/10 01:18:08;;;;;;;5.07;1.80;;;18.10;99.90;;;-147.18;100.00;67318.16;4971865;28;20064;-82
2022/09/10 01:22:05;;;;;;;5.75;1.70;;;18.00;99.90;;;-147.18;100.00;67318.16;5011757;28;20077;-82
2022/09/10 01:26:02;;;;;;;5.50;1.50;;;18.00;99.90;;;-147.18;100.00;67318.16;5007377;28;20049;-82
2022/09/10 01:29:37;;;;;;;8.88;1.70;;;18.00;99.90;;;-147.18;100.00;67318.16;5002499;28;23370;-82
2022/09/10 01:33:12;;;;;;;6.13;1.58;;;18.00;99.90;;;-147.18;100.00;67318.16;5008273;28;20041;-82
2022/09/10 01:36:47;;;;;;;9.77;2.35;;;18.00;99.90;;;-147.18;100.00;67318.16;4998970;28;20050;-82
2022/09/10 01:40:16;;;;;;;6.38;1.80;;;18.10;99.90;;;-147.18;100.00;67318.16;4997552;28;20826;-82
2022/09/10 01:43:43;;;;;;;4.55;1.40;;;17.90;99.90;;;-147.18;100.00;67318.16;5010700;28;20045;-82
2022/09/10 01:47:29;;;;;;;6.85;1.38;;;18.20;99.90;;;-147.18;100.00;67318.16;5006452;28;20064;-82
2022/09/10 01:51:13;;;;;;;5.13;1.63;;;18.00;99.90;;;-147.18;100.00;67318.16;5025490;28;20060;-82
2022/09/10 01:54:59;;;;;;;3.80;1.30;;;17.90;99.90;;;-147.18;100.00;67318.16;5003789;28;20054;-82
2022/09/10 01:58:34;;;;;;;4.53;1.70;;;17.80;99.90;;;-147.18;100.00;67318.16;5021883;28;20073;-82
2022/09/10 02:02:17;;;;;;;7.15;1.40;;;17.80;99.90;;;-147.18;100.00;67318.16;5019792;28;20087;-82
2022/09/10 02:05:44;;;;;;;5.45;1.70;;;17.80;99.90;;;-147.18;100.00;67318.16;5028249;28;20362;-82
2022/09/10 02:09:15;;;;;;;5.00;1.48;;;17.80;99.90;;;-147.18;100.00;67318.16;5010385;28;20128;-82
2022/09/10 02:12:45;;;;;;;9.65;1.70;;;17.80;99.90;;;-147.18;100.00;67318.16;5005970;28;20109;-82
2022/09/10 02:16:29;;;;;;;5.05;1.58;;;17.80;99.90;;;-147.18;100.00;67318.16;5009573;28;20112;-80
2022/09/10 02:19:58;;;;;;;4.50;1.60;;;17.80;99.90;;;-147.18;100.00;67318.16;5001521;28;20056;-82
2022/09/10 02:23:26;;;;;;;4.30;1.58;;;17.80;99.90;;;-147.18;100.00;67318.16;5004520;28;20144;-82
2022/09/10 02:26:51;;;;;;;5.07;1.80;;;17.80;99.90;;;-147.18;100.00;67318.16;5021818;28;20045;-82
2022/09/10 02:30:19;;;;;;;4.55;1.60;;;17.80;99.90;;;-147.18;100.00;67318.16;4991897;28;20092;-82
2022/09/10 02:33:46;;;;;;;6.72;2.13;;;17.90;99.90;;;-147.18;100.00;67318.16;5008422;28;20053;-82
2022/09/10 02:37:12;;;;;;;7.82;2.10;;;17.90;99.90;;;-147.18;100.00;67318.16;5027075;28;20413;-82
2022/09/10 02:40:39;;;;;;;9.65;2.35;;;17.90;99.90;;;-147.18;100.00;67318.16;5010066;28;20608;-82
2022/09/10 02:44:06;;;;;;;10.63;2.35;;;17.80;99.90;;;-147.18;100.00;67318.16;5002769;28;20076;-82
2022/09/10 02:47:31;;;;;;;8.32;2.33;;;17.90;99.90;;;-147.18;100.00;67318.16;4997916;28;20099;-82
2022/09/10 02:50:58;;;;;;;7.45;1.98;;;17.90;99.90;;;-147.18;100.00;67318.16;5011788;28;20045;-82
2022/09/10 02:54:26;;;;;;;7.82;2.38;;;17.90;99.90;;;-147.18;100.00;67318.16;5017581;28;20058;-82
2022/09/10 02:57:53;;;;;;;4.93;1.83;;;17.90;99.90;;;-147.18;100.00;67318.16;5011200;28;20042;-82
2022/09/10 03:01:21;;;;;;;4.43;1.80;;;17.90;99.90;;;-147.18;100.00;67318.16;5006508;28;20053;-82
2022/09/10 03:04:56;;;;;;;5.72;1.90;;;17.90;99.90;;;-147.18;100.00;67318.16;5015132;28;20053;-82
2022/09/10 03:08:25;;;;;;;4.38;1.85;;;17.90;99.90;;;-147.18;100.00;67318.16;5020528;28;20536;-82
2022/09/10 03:11:50;;;;;;;7.20;2.30;;;18.00;99.90;;;-147.18;100.00;67318.16;5026981;28;20042;-80
2022/09/10 03:15:16;;;;;;;4.82;2.00;;;17.90;99.90;;;-147.18;100.00;67318.16;5013819;28;20133;-83
2022/09/10 03:18:42;;;;;;;5.72;2.00;;;18.00;99.90;;;-147.18;100.00;67318.16;4995501;28;20050;-82
2022/09/10 03:22:11;;;;;;;5.25;2.15;;;17.90;99.90;;;-147.18;100.00;67318.16;5014553;28;20116;-82
2022/09/10 03:25:38;;;;;;;6.63;2.13;;;17.90;99.90;;;-147.18;100.00;67318.16;5006221;28;20136;-83
2022/09/10 03:29:03;;;;;;;9.05;2.72;;;18.00;99.90;;;-147.18;100.00;67318.16;5030692;28;20068;-82
2022/09/10 03:32:34;;;;;;;12.15;2.50;;;17.90;99.90;;;-147.18;100.00;67318.16;5027314;28;20065;-80
2022/09/10 03:36:01;;;;;;;11.70;2.50;;;17.90;99.90;;;-147.18;100.00;67318.16;5019894;28;20045;-80
2022/09/10 03:39:27;;;;;;;6.50;2.47;;;17.90;99.90;;;-147.18;100.00;67318.16;5005661;28;20139;-80
2022/09/10 03:42:54;;;;;;;6.60;2.33;;;17.90;99.90;;;-147.18;100.00;67318.16;5013463;28;20073;-80
2022/09/10 03:46:20;;;;;;;8.88;2.67;;;17.90;99.90;;;-147.18;100.00;67318.16;4994282;28;20050;-80
2022/09/10 03:49:46;;;;;;;8.85;2.65;;;17.90;99.90;;;-147.18;100.00;67318.16;5006178;28;20064;-82
2022/09/10 03:53:12;;;;;;;10.38;2.97;;;17.90;99.90;;;-147.18;100.00;67318.16;5005719;28;20545;-80
2022/09/10 03:56:38;;;;;;;8.52;2.75;;;17.90;99.90;;;-147.18;100.00;67318.16;5001562;28;20041;-80
2022/09/10 04:00:06;;;;;;;5.68;2.70;;;17.90;99.90;;;-147.18;100.00;67318.16;5011250;28;20033;-80
2022/09/10 04:03:41;;;;;;;7.47;2.90;;;17.90;99.90;;;-147.18;100.00;67318.16;5026488;28;20138;-80
2022/09/10 04:07:09;;;;;;;11.20;3.40;;;17.90;99.90;;;-147.18;100.00;67318.16;4995116;28;20041;-80
2022/09/10 04:10:35;;;;;;;11.38;3.10;;;17.90;99.90;;;-147.18;100.00;67318.16;5026826;28;20571;-80
2022/09/10 04:14:02;;;;;;;9.20;3.20;;;17.90;99.90;;;-147.18;100.00;67318.16;5028380;28;20046;-82
2022/09/10 04:17:29;;;;;;;10.60;3.50;;;17.90;99.90;;;-147.18;100.00;67318.16;5012645;28;20048;-83
2022/09/10 04:20:55;;;;;;;8.85;3.67;;;17.90;99.90;;;-147.18;100.00;67318.16;5003947;28;20049;-82
2022/09/10 04:24:21;;;;;;;11.00;3.75;;;17.90;99.90;;;-147.18;100.00;67318.16;5013254;28;20045;-82
2022/09/10 04:27:48;;;;;;;9.65;4.32;;;17.90;99.90;;;-147.18;100.00;67318.16;5027633;28;20510;-83
2022/09/10 04:31:15;;;;;;;9.50;3.72;;;17.90;99.90;;;-147.18;100.00;67318.16;5001471;28;20053;-82
2022/09/10 04:34:43;;;;;;;9.75;3.97;;;17.80;99.90;;;-147.18;100.00;67318.16;5004578;28;20158;-82
2022/09/10 04:38:09;;;;;;;10.15;3.53;;;17.90;99.90;;;-147.18;100.00;67318.16;5004722;28;20072;-79
2022/09/10 04:41:37;;;;;;;9.70;4.20;;;17.80;99.90;;;-147.18;100.00;67318.16;4998866;28;20041;-81
2022/09/10 04:45:06;;;;;;;9.27;3.85;;;17.80;99.90;;;-147.18;100.00;67318.16;5021825;23;20503;-76
2022/09/10 04:48:33;;;;;;;11.55;4.43;;;17.80;99.90;;;-147.18;100.00;67318.16;4994983;28;20061;-75
2022/09/10 04:52:00;;;;;;;8.30;3.60;;;17.80;99.90;;;-147.18;100.00;67318.16;5008064;28;20050;-74
2022/09/10 04:55:26;;;;;;;10.27;3.67;;;17.80;99.90;;;-147.18;100.00;67318.16;4979356;28;20548;-74
2022/09/10 04:58:52;;;;;;;12.15;3.85;;;17.80;99.90;;;-147.18;100.00;67318.16;4999608;28;20061;-74
2022/09/10 05:02:21;;;;;;;14.40;4.60;;;17.80;99.90;;;-147.18;100.00;67318.16;4974993;28;20059;-74
2022/09/10 05:05:47;;;;;;;9.10;4.25;;;17.80;99.90;;;-147.18;100.00;67318.16;4987000;28;20533;-74
2022/09/10 05:09:15;;;;;;;12.60;4.53;;;17.80;99.90;;;-147.18;100.00;67318.16;4988595;28;20056;-73
2022/09/10 05:12:47;;;;;;;13.38;4.68;;;17.80;99.90;;;-147.18;100.00;67318.16;4996833;28;20050;-74
2022/09/10 05:16:21;;;;;;;11.50;4.53;;;17.80;99.90;;;-147.18;100.00;67318.16;4988893;28;20038;-76
2022/09/10 05:19:47;;;;;;;9.65;4.30;;;17.80;99.90;;;-147.18;100.00;67318.16;4994749;28;20518;-75
2022/09/10 05:23:13;;;;;;;12.07;4.78;;;17.80;99.90;;;-147.18;100.00;67318.16;4988725;28;20165;-75
2022/09/10 05:26:42;;;;;;;10.70;4.55;;;17.80;99.90;;;-147.18;100.00;67318.16;4985226;28;20384;-76
2022/09/10 05:30:09;;;;;;;13.02;4.57;;;17.80;99.90;;;-147.18;100.00;67318.16;4988241;28;20038;-75
2022/09/10 05:33:35;;;;;;;12.23;4.93;;;17.80;99.90;;;-147.18;100.00;67318.16;4989624;28;20046;-75
2022/09/10 05:37:01;;;;;;;9.95;4.60;;;17.80;99.90;;;-147.18;100.00;67318.16;5004209;28;20057;-75
2022/09/10 05:40:28;;;;;;;11.13;4.93;;;17.80;99.90;;;-147.18;100.00;67318.16;4988371;28;20665;-75
2022/09/10 05:43:56;;;;;;;10.20;4.93;;;17.80;99.90;;;-147.18;100.00;67318.16;5003942;28;20081;-75
2022/09/10 05:47:22;;;;;;;12.05;5.07;;;17.80;99.90;;;-147.18;100.00;67318.16;4999487;28;20046;-75
2022/09/10 05:50:48;;;;;;;11.45;4.20;;;17.80;99.90;;;-147.18;100.00;67318.16;5000973;28;20069;-78
2022/09/10 05:54:13;;;;;;;10.95;5.00;;;17.80;99.90;;;-147.18;100.00;67318.16;4995754;28;20526;-78
2022/09/10 05:57:40;;;;;;;12.60;4.70;;;17.80;99.90;;;-147.18;100.00;67318.16;4982574;28;20078;-77
2022/09/10 06:01:11;;;;;;;10.85;4.75;;;17.80;99.90;;;-147.18;100.00;67318.16;5013536;28;20060;-77
2022/09/10 06:04:38;;;;;;;10.95;4.53;;;17.80;99.90;;;-147.18;100.00;67318.16;4993961;28;20137;-78
2022/09/10 06:08:04;;;;;;;13.13;4.80;;;17.90;99.90;;;-147.18;100.00;67318.16;4988732;28;20061;-77
2022/09/10 06:11:31;;;;;;;11.93;5.13;;;17.80;99.90;;;-147.18;100.00;67318.16;4986362;28;20106;-77
2022/09/10 06:14:57;;;;;;;14.13;5.10;;;17.80;99.90;;;-147.18;100.00;67318.16;4985573;28;20065;-77
2022/09/10 06:18:24;;;;;;;11.65;4.97;;;17.80;99.90;;;-147.18;100.00;67318.16;4985510;28;20042;-77
2022/09/10 06:22:00;;;;;;;9.55;5.28;;;17.80;99.90;;;-147.18;100.00;67318.16;5004701;28;20498;-77
2022/09/10 06:25:26;;;;;;;14.40;5.40;;;17.80;99.90;;;-147.18;100.00;67318.16;4993399;28;20050;-77
2022/09/10 06:28:54;;;;;;;14.40;5.03;;;17.90;99.90;;;-147.18;100.00;67318.16;4993779;28;20128;-75
2022/09/10 06:32:20;;;;;;;14.95;4.88;;;17.90;99.90;;;-147.18;100.00;67318.16;4995727;28;20133;-74
2022/09/10 06:35:51;;;;;;;9.32;5.18;;;17.90;99.90;;;-147.18;100.00;67318.16;4984886;28;20035;-74
2022/09/10 06:39:17;;;;;;;9.13;5.10;;;17.90;99.90;;;-147.18;100.00;67318.16;4987909;28;20080;-77
2022/09/10 06:42:47;;;;;;;9.85;5.20;;;17.90;99.90;;;-147.18;100.00;67318.16;5016422;28;20054;-77
2022/09/10 06:46:15;;;;;;;11.45;5.22;;;17.90;99.90;;;-147.18;100.00;67318.16;4982211;28;21332;-76
2022/09/10 06:49:49;;;;;;;12.15;5.22;;;17.90;99.90;;;-147.18;100.00;67318.16;4992643;28;20086;-76
2022/09/10 06:53:20;;;;;;;9.82;4.72;;;17.90;99.90;;;-147.18;100.00;67318.16;4988077;28;20058;-77
2022/09/10 06:56:48;;;;;;;17.83;5.00;;;17.90;99.90;;;-147.18;100.00;67318.16;4984503;28;20043;-76
2022/09/10 07:00:14;;;;;;;10.30;4.50;;;18.00;99.90;;;-147.18;100.00;67318.16;4969234;28;20055;-78
2022/09/10 07:03:42;;;;;;;16.70;5.22;;;17.90;99.90;;;-147.18;100.00;67318.16;4999682;28;20038;-77
2022/09/10 07:07:11;;;;;;;9.60;5.07;;;18.00;99.90;;;-147.18;100.00;67318.16;4989358;28;20042;-76
2022/09/10 07:10:37;;;;;;;13.10;4.80;;;18.00;99.90;;;-147.18;100.00;67318.16;4994538;28;20042;-76
2022/09/10 07:14:04;;;;;;;10.10;4.95;;;18.00;99.90;;;-147.18;100.00;67318.16;4984577;28;20050;-76
2022/09/10 07:17:34;;;;;;;10.43;4.72;;;18.10;99.90;;;-147.18;100.00;67318.16;4977729;28;20078;-77
2022/09/10 07:21:07;;;;;;;16.45;4.45;;;18.10;99.90;;;-147.18;100.00;67318.16;5004722;28;20454;-76
2022/09/10 07:24:35;;;;;;;13.02;5.00;;;18.10;99.90;;;-147.18;100.00;67318.16;4993254;28;20054;-77
2022/09/10 07:28:11;;;;;;;14.80;4.88;;;18.10;99.90;;;-147.18;100.00;67318.16;4991781;28;20414;-76
2022/09/10 07:31:40;;;;;;;12.20;4.88;;;18.20;99.90;;;-147.18;100.00;67318.16;5003710;28;20099;-77
2022/09/10 07:35:17;;;;;;;35.03;5.93;;;18.20;99.90;;;-147.18;100.00;67318.16;4987150;28;20042;-76
2022/09/10 07:38:50;;;;;;;14.05;4.85;;;18.30;99.90;;;-147.18;100.00;67318.16;4987026;28;20423;-76
2022/09/10 07:42:16;;;;;;;12.02;4.57;;;18.20;99.90;;;-147.18;100.00;67318.16;4991441;28;20057;-79
2022/09/10 07:45:43;;;;;;;8.25;4.55;;;18.30;99.90;;;-147.18;100.00;67318.16;4986288;28;20130;-77
2022/09/10 07:49:09;;;;;;;10.73;4.80;;;18.30;99.90;;;-147.18;100.00;67318.16;5016529;28;20050;-77
2022/09/10 07:52:36;;;;;;;10.25;4.55;;;18.30;99.90;;;-147.18;100.00;67318.16;4987744;28;20525;-77
2022/09/10 07:56:08;;;;;;;11.88;5.10;;;18.30;99.90;;;-147.18;100.00;67318.16;4995815;28;20374;-77
2022/09/10 07:59:38;;;;;;;13.75;5.35;;;18.30;99.90;;;-147.18;100.00;67318.16;5007118;28;20057;-77
2022/09/10 08:03:09;;;;;;;11.13;5.03;;;18.40;99.90;;;-147.18;100.00;67318.16;4991555;28;20132;-77
2022/09/10 08:06:36;;;;;;;11.75;4.93;;;18.30;99.90;;;-147.18;100.00;67318.16;4990533;28;20053;-77
2022/09/10 08:10:08;;;;;;;10.65;5.10;;;18.40;99.90;;;-147.18;100.00;67318.16;4990018;28;20593;-78
2022/09/10 08:13:35;;;;;;;10.50;5.18;;;18.40;99.90;;;-147.18;100.00;67318.16;5015883;28;20574;-75
2022/09/10 08:17:04;;;;;;;11.50;5.43;;;18.40;99.90;;;-147.18;100.00;67318.16;5018642;28;20058;-77
2022/09/10 08:20:34;;;;;;;10.18;5.10;;;18.40;99.90;;;-147.18;100.00;67318.16;4990992;28;20128;-77
2022/09/10 08:24:00;;;;;;;10.85;5.40;;;18.40;99.90;;;-147.18;100.00;67318.16;4995018;28;20042;-76
2022/09/10 08:27:29;;;;;;;9.07;4.95;;;18.40;99.90;;;-147.18;100.00;67318.16;4993407;28;20126;-75
2022/09/10 08:30:56;;;;;;;12.00;5.10;;;18.40;99.90;;;-147.18;100.00;67318.16;4977224;28;20093;-73
2022/09/10 08:34:35;;;;;;;11.43;5.28;;;18.40;99.90;;;-147.18;100.00;67318.16;4976926;28;20042;-73
2022/09/10 08:38:05;;;;;;;7.63;4.68;;;18.40;99.90;;;-147.18;100.00;67318.16;4998968;28;20116;-73
2022/09/10 08:41:40;;;;;;;10.50;5.30;;;18.40;99.90;;;-147.18;100.00;67318.16;4982109;28;20586;-74
2022/09/10 08:45:28;;;;;;;11.25;5.20;;;18.40;99.90;;;-147.18;100.00;67318.16;4992321;28;20081;-74
2022/09/10 08:49:06;;;;;;;13.32;5.90;;;18.40;99.90;;;-147.18;100.00;67318.16;4984916;28;20049;-74
2022/09/10 08:52:38;;;;;;;11.15;5.65;;;18.40;99.90;;;-147.18;100.00;67318.16;4987100;28;20046;-76
2022/09/10 08:56:21;;;;;;;14.48;6.55;;;18.50;99.90;;;-147.18;100.00;67318.16;4996926;28;20049;-76
2022/09/10 08:59:53;;;;;;;12.23;6.22;;;18.50;99.90;;;-147.18;100.00;67318.16;4986294;28;20574;-75
2022/09/10 09:03:27;;;;;;;11.50;6.00;;;18.50;99.90;;;-147.18;100.00;67318.16;4982135;28;20042;-76
2022/09/10 09:06:58;;;;;;;11.93;5.95;;;18.50;99.90;;;-147.18;100.00;67318.16;5003508;28;20057;-76
2022/09/10 09:10:29;;;;;;;16.42;6.05;;;18.50;99.90;;;-147.18;100.00;67318.16;4987911;28;20065;-76
2022/09/10 09:14:34;;;;;;;13.05;6.38;;;18.60;99.90;;;-147.18;100.00;67318.16;4985896;28;20069;-76
2022/09/10 09:18:32;;;;;;;11.35;6.07;;;18.60;99.90;;;-147.18;100.00;67318.16;5000183;28;20124;-75
2022/09/10 09:22:17;;;;;;;13.38;6.22;;;18.60;99.90;;;-147.18;100.00;67318.16;4988996;28;20058;-76
2022/09/10 09:25:57;;;;;;;14.07;6.32;;;18.60;99.90;;;-147.18;100.00;67318.16;5002475;28;20129;-76
2022/09/10 09:29:36;;;;;;;14.43;6.13;;;18.70;99.90;;;-147.18;100.00;67318.16;4997591;28;20044;-77
2022/09/10 09:33:12;;;;;;;10.88;6.75;;;18.70;99.90;;;-147.18;100.00;67318.16;4985815;28;20042;-76
2022/09/10 09:36:46;;;;;;;10.80;6.65;;;18.90;99.90;;;-147.18;100.00;67318.16;4998041;28;20058;-75
2022/09/10 09:40:21;;;;;;;14.48;6.45;;;18.80;99.90;;;-147.18;100.00;67318.16;4997312;28;20046;-76
2022/09/10 09:43:53;;;;;;;15.80;7.60;;;18.90;99.90;;;-147.18;100.00;67318.16;5004310;28;20514;-75
2022/09/10 09:47:22;;;;;;;14.57;6.68;;;18.90;99.90;;;-147.18;100.00;67318.16;4995945;28;20142;-75
2022/09/10 09:50:52;;;;;;;15.40;6.93;;;18.90;99.90;;;-147.18;100.00;67318.16;4987268;28;20042;-75
2022/09/10 09:54:22;;;;;;;14.20;6.50;;;18.90;99.90;;;-147.18;100.00;67318.16;4982083;28;20112;-75
2022/09/10 09:57:57;;;;;;;10.10;5.80;;;18.80;99.90;;;-147.18;100.00;67318.16;4986255;28;20395;-75
2022/09/10 10:01:38;;;;;;;9.82;5.47;;;18.80;99.90;;;-147.18;100.00;67318.16;4990931;28;20042;-75
2022/09/10 10:05:22;;;;;;;10.55;5.70;;;18.70;99.90;;;-147.18;100.00;67318.16;4990570;28;20046;-75
2022/09/10 10:08:56;;;;;;;11.95;5.72;;;18.70;99.90;;;-147.18;100.00;67318.16;4981176;28;20128;-75
2022/09/10 10:12:48;;;;;;;12.98;5.80;;;18.70;99.90;;;-147.18;100.00;67318.16;4990724;28;20046;-75
2022/09/10 10:16:35;;;;;;;10.95;5.95;;;18.60;99.90;;;-147.18;100.00;67318.16;4990021;28;20048;-76
2022/09/10 10:20:07;;;;;;;8.52;5.50;;;18.60;99.90;;;-147.18;100.00;67318.16;4990558;28;20042;-76
2022/09/10 10:23:35;;;;;;;14.38;5.95;;;18.60;99.90;;;-147.18;100.00;67318.16;4990578;28;20110;-75
2022/09/10 10:27:17;;;;;;;8.23;5.03;;;18.60;99.90;;;-147.18;100.00;67318.16;4984860;28;20081;-75
2022/09/10 10:30:52;;;;;;;7.35;4.78;;;18.60;99.90;;;-147.18;100.00;67318.16;4974610;28;20553;-75
2022/09/10 10:34:44;;;;;;;11.25;6.45;;;18.50;99.90;;;-147.18;100.00;67318.16;4989940;28;20047;-76
2022/09/10 10:38:30;;;;;;;11.93;6.97;;;18.50;99.90;;;-147.18;100.00;67318.16;4990117;28;20042;-75
2022/09/10 10:42:35;;;;;;;12.25;6.13;;;18.50;99.90;;;-147.18;100.00;67318.16;4986417;28;20054;-76
2022/09/10 10:46:19;;;;;;;11.40;6.60;;;18.50;99.90;;;-147.18;100.00;67318.16;5037703;23;20057;-77
2022/09/10 10:50:02;;;;;;;9.15;6.50;;;18.50;99.90;;;-147.18;100.00;67318.16;5032220;28;20165;-77
2022/09/10 10:53:45;;;;;;;10.45;6.85;;;18.40;99.90;;;-147.18;100.00;67318.16;5022518;28;20038;-77
2022/09/10 10:57:23;;;;;;;10.05;7.38;;;18.40;99.90;;;-147.18;100.00;67318.16;5007906;28;20054;-77
2022/09/10 11:01:02;;;;;;;11.23;7.88;;;18.50;99.90;;;-147.18;100.00;67318.16;5002192;28;20571;-77
2022/09/10 11:04:39;;;;;;;14.35;9.32;;;18.50;99.90;;;-147.18;100.00;67318.16;4990053;28;20051;-77
2022/09/10 11:08:13;;;;;;;11.02;8.70;;;18.50;99.90;;;-147.18;100.00;67318.16;5009480;28;20045;-77
2022/09/10 11:11:48;;;;;;;13.48;9.02;;;18.60;99.90;;;-147.18;100.00;67318.16;5008662;28;20042;-79
2022/09/10 11:15:23;;;;;;;13.38;9.38;;;18.70;99.90;;;-147.18;100.00;67318.16;5000095;28;20042;-78
2022/09/10 11:18:56;;;;;;;14.73;9.13;;;18.80;99.90;;;-147.18;100.00;67318.16;5001327;28;20045;-77
2022/09/10 11:22:29;;;;;;;11.80;7.95;;;18.90;99.90;;;-147.18;100.00;67318.16;5008717;28;20065;-78
2022/09/10 11:26:01;;;;;;;10.73;8.27;;;19.00;99.90;;;-147.18;100.00;67318.16;5008470;28;20038;-78
2022/09/10 11:29:34;;;;;;;11.23;8.20;;;19.00;99.90;;;-147.18;100.00;67318.16;5004963;28;20050;-78
2022/09/10 11:33:06;;;;;;;13.77;9.10;;;19.10;99.90;;;-147.18;100.00;67318.16;5002675;28;20046;-80
2022/09/10 11:36:41;;;;;;;14.82;9.73;;;19.10;99.90;;;-147.18;100.00;67318.16;4997973;28;20041;-79
2022/09/10 11:40:18;;;;;;;15.07;10.38;;;19.20;99.90;;;-147.18;100.00;67318.16;4999920;28;20038;-79
2022/09/10 11:43:52;;;;;;;15.18;9.98;;;19.20;99.90;;;-147.18;100.00;67318.16;5003962;28;20164;-80
2022/09/10 11:47:25;;;;;;;16.10;11.23;;;19.30;99.90;;;-147.18;100.00;67318.16;5008466;28;20046;-80
2022/09/10 11:50:56;;;;;;;16.58;10.75;;;19.20;99.90;;;-147.18;100.00;67318.16;5007315;28;20566;-79
2022/09/10 11:54:26;;;;;;;17.77;11.50;;;19.20;99.90;;;-147.18;100.00;67318.16;5011877;28;20042;-79
2022/09/10 11:58:01;;;;;;;16.60;11.55;;;19.20;99.90;;;-147.18;100.00;67318.16;5009526;28;20050;-80
2022/09/10 12:01:39;;;;;;;15.85;11.02;;;19.30;99.90;;;-147.18;100.00;67318.16;5001668;28;20474;-80
2022/09/10 12:05:26;;;;;;;15.10;10.70;;;19.30;99.90;;;-147.18;100.00;67318.16;5002908;28;20041;-80
2022/09/10 12:09:05;;;;;;;16.77;11.27;;;19.30;99.90;;;-147.18;100.00;67318.16;5005374;28;20085;-80
2022/09/10 12:12:41;;;;;;;20.45;12.95;;;19.30;99.90;;;-147.18;100.00;67318.16;5006906;28;20042;-80
2022/09/10 12:16:17;;;;;;;16.98;11.77;;;19.30;99.90;;;-147.18;100.00;67318.16;5016163;28;20054;-81
2022/09/10 12:19:47;;;;;;;17.92;12.70;;;19.30;99.90;;;-147.18;100.00;67318.16;5010172;28;20518;-80
2022/09/10 12:23:23;;;;;;;18.55;12.57;;;19.20;99.90;;;-147.18;100.00;67318.16;5007584;28;20052;-80
2022/09/10 12:26:59;;;;;;;21.23;14.45;;;19.20;99.90;;;-147.18;100.00;67318.16;5006259;28;20069;-80
2022/09/10 12:30:57;;;;;;;19.30;13.65;;;19.20;99.90;;;-147.18;100.00;67318.16;5008635;28;20053;-79
2022/09/10 12:35:15;;;;;;;20.75;14.40;;;19.20;99.90;;;-147.18;100.00;67318.16;4998223;28;20045;-80
2022/09/10 12:38:48;;;;;;;18.75;14.82;;;19.20;99.90;;;-147.18;100.00;67318.16;5008494;28;20049;-79
2022/09/10 12:42:48;;;;;;;22.23;16.13;;;19.20;99.90;;;-147.18;100.00;67318.16;5009323;28;20038;-80
2022/09/10 12:47:18;;;;;;;21.98;15.55;;;19.20;99.90;;;-147.18;100.00;67318.16;5008980;28;20050;-81
2022/09/10 12:50:51;;;;;;;21.42;15.50;;;19.20;99.90;;;-147.18;100.00;67318.16;5012088;28;20390;-80
2022/09/10 12:54:39;;;;;;;24.02;16.42;;;19.20;99.90;;;-147.18;100.00;67318.16;5008477;28;20057;-80
2022/09/10 12:58:23;;;;;;;20.77;15.40;;;19.30;99.90;;;-147.18;100.00;67318.16;5008181;28;20045;-80
2022/09/10 13:02:18;;;;;;;22.58;17.05;;;19.30;99.90;;;-147.18;100.00;67318.16;5009467;28;20042;-80
2022/09/10 13:05:54;;;;;;;24.45;16.98;;;19.30;99.90;;;-147.18;100.00;67318.16;5006668;28;20043;-81
2022/09/10 13:09:23;;;;;;;26.10;18.05;;;19.40;99.90;;;-147.18;100.00;67318.16;5009935;28;20034;-81
2022/09/10 13:12:53;;;;;;;24.48;16.98;;;19.40;99.90;;;-147.18;100.00;67318.16;5010624;28;20057;-79
2022/09/10 13:16:37;;;;;;;21.10;15.63;;;19.30;99.90;;;-147.18;100.00;67318.16;5021574;28;20533;-78
2022/09/10 13:20:36;;;;;;;18.67;14.35;;;19.30;99.90;;;-147.18;100.00;67318.16;4998550;28;20042;-78
2022/09/10 13:24:02;;;;;;;20.50;15.65;;;19.30;99.90;;;-147.18;100.00;67318.16;5009433;28;20045;-84
2022/09/10 13:27:49;;;;;;;22.70;16.02;;;19.30;99.90;;;-147.18;100.00;67318.16;5004958;28;20049;-85
2022/09/10 13:31:21;;;;;;;19.20;14.85;;;19.20;99.90;;;-147.18;100.00;67318.16;5009959;28;20038;-84
2022/09/10 13:35:46;;;;;;;21.75;15.73;;;19.20;99.90;;;-147.18;100.00;67318.16;5010325;28;20049;-79
2022/09/10 13:40:16;;;;;;;22.42;15.82;;;19.20;99.90;;;-147.18;100.00;67318.16;5006426;28;20128;-80
2022/09/10 13:44:12;;;;;;;20.02;14.85;;;19.20;99.90;;;-147.18;100.00;67318.16;4997039;28;20073;-79
2022/09/10 13:47:46;;;;;;;22.92;15.48;;;19.10;99.90;;;-147.18;100.00;67318.16;5004544;28;20070;-79
2022/09/10 13:51:19;;;;;;;22.05;16.50;;;19.20;99.90;;;-147.18;100.00;67318.16;5009077;28;20046;-79
2022/09/10 13:54:49;;;;;;;22.17;15.35;;;19.10;99.90;;;-147.18;100.00;67318.16;5010308;28;20069;-79
2022/09/10 13:58:22;;;;;;;22.23;16.40;;;19.10;99.90;;;-147.18;100.00;67318.16;5008080;28;20561;-79
2022/09/10 14:01:53;;;;;;;21.08;15.38;;;19.10;99.90;;;-147.18;100.00;67318.16;5006109;28;20414;-79
2022/09/10 14:05:35;;;;;;;21.77;15.20;;;19.10;99.90;;;-147.18;100.00;67318.16;5009570;28;20149;-79
2022/09/10 14:09:06;;;;;;;25.20;16.33;;;19.10;99.90;;;-147.18;100.00;67318.16;5006380;28;20117;-79
2022/09/10 14:12:36;;;;;;;20.42;15.38;;;19.10;99.90;;;-147.18;100.00;67318.16;5010107;28;20494;-79
2022/09/10 14:16:06;;;;;;;20.23;15.40;;;19.10;99.90;;;-147.18;100.00;67318.16;5008602;28;20379;-79
2022/09/10 14:19:44;;;;;;;20.60;14.88;;;19.00;99.90;;;-147.18;100.00;67318.16;5003652;28;20112;-82
2022/09/10 14:23:15;;;;;;;24.50;16.40;;;19.00;99.90;;;-147.18;100.00;67318.16;5009664;28;20049;-82